Sugar Bush, Minnesota
Current Conditions -  °F | °C
As of 7:32 PM on Thursday 18 Dec 2014 (Local Time) from KBJI Reporting Station
Overcast Overcast  
Wind Chill:   Ceiling: 1100
Heat Index: 17°   Visibility: 10mi
Dew Point: 14°   Wind: 9mph
Humidity: 86%   Direction: 160°SSE
Pressure: 30.17"   Gusts: NA
Location:  47.5271°N, 94.7611°W
Report Text: KBJI 190132Z AUTO 16008KT 10SM OVC011 M08/M10 A3017 RMK AO2 T10811100
Loading
Personal Weather Stations






























Interactive Weather Map New forecast layout! Learn more

10-Day Weather Forecast

Advertisements
Track Severe Weather on mobile